Terminal Aerodrome Forecast
Issued by NWS Pocatello, ID

Home | Current Version | Previous Version | Text Only | Print | Product List | Glossary On
Versions: 1 2 3 4 5 6 7 8 9 10 11 12 13 14
000
FTUS45 KPIH 020500
TAFIDA
TAF
KIDA 020520Z 0206/0306 23012G18KT P6SM SCT200
     FM020900 31009KT P6SM BKN150
     FM021900 23010G15KT P6SM VCSH BKN050 OVC100
     FM030100 21010KT P6SM BKN110=

USA.gov is the U.S. government's official web portal to all federal, state and local government web resources and services.